AirNav   Pilot Hours Calculator
 
 826 users online  

WI28 Walter's Agri-Center Airport
Rio Creek, Wisconsin, USA

GOING TO RIO CREEK?


FAA INFORMATION EFFECTIVE 26 JANUARY 2023

Location

FAA Identifier: WI28
Lat/Long: 44-35-09.9920N 087-33-27.3230W
44-35.166533N 087-33.455383W
44.5861089,-87.5575897
(estimated)
Elevation: 717 ft. / 218.5 m (surveyed)
Variation: 02W (1985)
Time zone: UTC -6 (UTC -5 during Daylight Saving Time)
Zip code: 54201

Airport Operations

Airport use: Private use. Permission required prior to landing
Activation date: 07/1974
Control tower: no
ARTCC: MINNEAPOLIS CENTER
FSS: GREEN BAY FLIGHT SERVICE STATION
LCL PHONE NUMBER 494-7417.
Attendance: UNATNDD
Wind indicator: yes
Segmented circle: no

Airport Communications

WX AWOS-3PT at SUE (17 nm N): 128.325 (920-743-7087)

Nearby radio navigation aids

VOR radial/distance  VOR name  Freq  Var
GRBr085/27.3GREEN BAY VORTAC115.5001E

Airport Services

Parking: tiedowns
Airframe service: NONE
Powerplant service: NONE
Bottled oxygen: NONE
Bulk oxygen: NONE

Runway Information

Runway 7/25

Dimensions: 1750 x 80 ft. / 533 x 24 m
550 FT STWY SW END & 450 FT STWY NE END.
Surface: turf, in fair condition
RUNWAY 7  RUNWAY 25
Traffic pattern: leftleft
Markings: nonenone
Runway end identifier lights: nono
Obstructions: 37 ft. tree, 410 ft. from runway, 75 ft. right of centerline, 11:1 slope to clear62 ft. tree, 375 ft. from runway, 110 ft. right of centerline, 6:1 slope to clear

Airport Ownership and Management from official FAA records

Ownership: Privately-owned
Owner: DONALD H. WALTER
E 4447 HWY 54
ALGOMA, WI 54201
Phone 920-837-7222
Manager: DONALD H. WALTER
E 4447 HWY 54
ALGOMA, WI 54201
Phone 920-837-7222
OTHER PHONE NUMBER 920-837-7777.

Airport Operational Statistics

Aircraft based on the field: 12
Single engine airplanes: 12
    
Aircraft operations: avg 62/month *
67% local general aviation
33% transient general aviation
* for 12-month period ending 17 July 1998

Additional Remarks

RY 25 +15 FT HGR 95 FT R AT THLD; 30 FT TREES 75 FT R AT THLD.
(52-07) RR PARALLEL TO RWY 110'SE.
FOR CD CTC MINNEAPOLIS ARTCC AT 651-463-5588.
100 FT GRAIN ELEVATOR LEG SOUTH AND EAST OF RWY 25.

Instrument Procedures

There are no published instrument procedures at WI28.

Some nearby airports with instrument procedures:

KSUE - Door County Cherryland Airport (17 nm N)
KOCQ - Oconto/J Douglas Bake Municipal Airport (23 nm NW)
KGRB - Green Bay/Austin Straubel International Airport (25 nm W)
KMTW - Manitowoc County Airport (28 nm S)
KMNM - Menominee Regional Airport (33 nm N)
 
Loc | Ops | Rwys | IFR | FBO | Links
Com | Nav | Svcs | Stats | Notes
Area around WI28 (Walter's Agri-Center Airport)
 
Road maps at: MapQuest Bing Google
 
Aerial photo
WARNING: Photo may not be current or correct
Aerial photo of WI28 (Walter's Agri-Center Airport)
Do you have a better or more recent aerial photo of Walter's Agri-Center Airport that you would like to share? If so, please send us your photo.

 
Sectional chart

 
Airport distance calculator
Flying to Walter's Agri-Center Airport? Find the distance to fly.

From to WI28

Sunrise and sunset
Times for 27-Jan-2023
 Local
(UTC-6)
 Zulu
(UTC)
Morning civil twilight06:4412:44
Sunrise07:1513:15
Sunset16:5122:51
Evening civil twilight17:2223:22

Current date and time
Zulu (UTC)  27-Jan-2023 12:25:53
Local (UTC-6)  27-Jan-2023 06:25:53
 
METAR
KSUE 
17nm N 
271156Z AUTO 18010KT 10SM CLR M10/M13 A2972 RMK AO2 SLP072 T11001128 11050 21106 58030 FZRANO
KOCQ 
23nm NW 
271155Z AUTO 17008KT 10SM SCT013 SCT120 M10/M11 A2970 RMK AO1 T10991109 11060 21105
KGRB 
25nm W 
271153Z 17010KT 10SM CLR M09/M13 A2970 RMK AO2 SLP070 70004 T10941128 11072 21111 58039
KMTW 
29nm S 
271156Z AUTO 18013G23KT 10SM CLR M09/M11 A2976 RMK AO2 SLP089 70001 T10891111 11050 21106 58030 FZRANO
KMNM 
32nm N 
271157Z AUTO 9SM -SN OVC011 M09/M11 A2970 RMK AO2 SLP077 6//// 7//// T10941111 11067 21100 58022 FZRANO PNO $
TAF
KGRB 
25nm W 
271123Z 2712/2812 18010G15KT P6SM SCT020 OVC060 WS020/22040KT TEMPO 2712/2714 3SM -SN BR OVC020 FM271400 18016G22KT 2SM -SN BR SCT014 OVC020 WS020/22050KT TEMPO 2714/2718 3/4SM -SN BR OVC014 FM271900 24018G28KT P6SM OVC018 FM272300 27016G26KT P6SM BKN027 FM280300 27010G18KT P6SM BKN070
KMTW 
29nm S 
271123Z 2712/2812 18010G15KT P6SM SCT020 OVC060 WS020/22040KT TEMPO 2712/2715 3SM -SN BR OVC020 FM271500 18016G22KT 2SM -SN BR SCT014 OVC020 WS020/22050KT TEMPO 2715/2719 3/4SM -SN BR OVC014 FM272000 24018G28KT P6SM OVC018 FM280000 27016G26KT P6SM BKN027 FM280400 27010G18KT P6SM BKN070
NOTAMs
Click for the latest NOTAMs
NOTAMs are issued by the DoD/FAA and will open in a separate window not controlled by AirNav.

 

 
 

Would you like to see your business listed on this page?

 If your business provides an interesting product or service to pilots, flight crews, aircraft, or users of the Walter's Agri-Center Airport, you should consider listing it here.  To start the listing process, click on the button below
 
Add a business
 

Other Pages about Walter's Agri-Center Airport

www.riocreekairport.com
 
Update a link
 
Copyright © AirNav, LLC. All rights reserved. Privacy Policy  Contact